Time;durP1;ratioP1;P1;durP2;ratioP2;P2;SDS_P1;SDS_P2;PMS_P1;PMS_P2;Temp;Humidity;BMP_temperature;BMP_pressure;BME280_temperature;BME280_humidity;BME280_pressure;Samples;Min_cycle;Max_cycle;Signal;HPM_P1;HPM_P2
2022/12/20 00:01:25;;;;;;;7.23;4.10;;;7.60;99.90;;;;;;5032871;28;20197;-66
2022/12/20 00:03:53;;;;;;;7.37;4.03;;;7.60;99.90;;;;;;5018922;28;20209;-67
2022/12/20 00:06:20;;;;;;;8.30;5.17;;;7.60;99.90;;;;;;5004324;28;20220;-68
2022/12/20 00:08:54;;;;;;;8.73;4.47;;;7.50;99.90;;;;;;5019949;28;20252;-67
2022/12/20 00:11:21;;;;;;;10.00;4.60;;;7.50;99.90;;;;;;5015172;28;20851;-67
2022/12/20 00:13:48;;;;;;;7.23;4.57;;;7.50;99.90;;;;;;5016342;28;20216;-66
2022/12/20 00:16:17;;;;;;;5.37;4.10;;;7.60;99.90;;;;;;5020062;28;21467;-66
2022/12/20 00:18:44;;;;;;;6.47;4.17;;;7.60;99.90;;;;;;5018377;28;20230;-67
2022/12/20 00:21:12;;;;;;;7.30;4.10;;;7.60;99.90;;;;;;5002631;28;21081;-66
2022/12/20 00:23:40;;;;;;;5.90;4.40;;;7.60;99.90;;;;;;5014276;28;20263;-67
2022/12/20 00:26:09;;;;;;;6.10;4.23;;;7.60;99.90;;;;;;5014330;28;20206;-66
2022/12/20 00:28:37;;;;;;;6.67;4.73;;;7.60;99.90;;;;;;5014971;28;20714;-66
2022/12/20 00:31:04;;;;;;;5.63;3.87;;;7.60;99.90;;;;;;5027923;28;20207;-66
2022/12/20 00:33:32;;;;;;;9.23;3.97;;;7.60;99.90;;;;;;5026472;28;20214;-67
2022/12/20 00:35:58;;;;;;;6.97;4.07;;;7.60;99.90;;;;;;4999980;28;20201;-66
2022/12/20 00:38:26;;;;;;;4.53;4.00;;;7.60;99.90;;;;;;5019975;28;20203;-67
2022/12/20 00:41:00;;;;;;;5.73;3.77;;;7.60;99.90;;;;;;5014159;28;20750;-67
2022/12/20 00:43:28;;;;;;;4.67;3.83;;;7.60;99.90;;;;;;5016362;28;20212;-67
2022/12/20 00:45:55;;;;;;;8.53;4.17;;;7.70;99.90;;;;;;5033552;28;20810;-66
2022/12/20 00:48:22;;;;;;;6.90;3.90;;;7.70;99.90;;;;;;5028227;28;20221;-66
2022/12/20 00:50:48;;;;;;;8.10;3.73;;;7.70;99.90;;;;;;5005812;28;20205;-67
2022/12/20 00:53:15;;;;;;;4.70;3.90;;;7.70;99.90;;;;;;5021970;28;20235;-66
2022/12/20 00:55:42;;;;;;;5.57;3.83;;;7.80;99.90;;;;;;5014176;28;20205;-66
2022/12/20 00:58:10;;;;;;;5.53;3.90;;;7.70;99.90;;;;;;5028272;28;20197;-66
2022/12/20 01:00:38;;;;;;;7.57;4.10;;;7.70;99.90;;;;;;5013427;28;20217;-66
2022/12/20 01:03:06;;;;;;;6.07;3.70;;;7.80;99.90;;;;;;5031434;28;20201;-66
2022/12/20 01:05:33;;;;;;;6.47;3.90;;;7.80;99.90;;;;;;5026798;28;20621;-66
2022/12/20 01:08:00;;;;;;;6.80;3.67;;;7.70;99.90;;;;;;5001747;28;20707;-66
2022/12/20 01:10:27;;;;;;;5.27;3.90;;;7.70;99.90;;;;;;5012658;28;20722;-67
2022/12/20 01:12:54;;;;;;;5.13;3.53;;;7.70;99.90;;;;;;5007555;28;20198;-66
2022/12/20 01:15:21;;;;;;;4.50;3.77;;;7.80;99.90;;;;;;5015486;28;20201;-67
2022/12/20 01:17:50;;;;;;;4.40;3.40;;;7.80;99.90;;;;;;5020481;28;20698;-66
2022/12/20 01:20:17;;;;;;;6.60;3.80;;;7.80;99.90;;;;;;5023876;28;20209;-67
2022/12/20 01:22:44;;;;;;;6.23;3.37;;;7.80;99.90;;;;;;5001532;28;20213;-67
2022/12/20 01:25:11;;;;;;;6.20;3.97;;;7.90;99.90;;;;;;5022669;28;20578;-66
2022/12/20 01:27:38;;;;;;;5.87;3.77;;;7.90;99.90;;;;;;5007989;28;20769;-66
2022/12/20 01:30:05;;;;;;;6.40;3.57;;;7.90;99.90;;;;;;5028282;28;20230;-67
2022/12/20 01:32:32;;;;;;;6.67;3.67;;;7.90;99.90;;;;;;5006902;28;20879;-67
2022/12/20 01:35:00;;;;;;;7.17;4.20;;;7.90;99.90;;;;;;5025075;28;20205;-66
2022/12/20 01:37:27;;;;;;;5.30;3.43;;;7.90;99.90;;;;;;5006884;28;20194;-67
2022/12/20 01:39:54;;;;;;;6.53;4.20;;;8.00;99.90;;;;;;5004330;28;20204;-66
2022/12/20 01:42:21;;;;;;;5.10;3.93;;;8.00;99.90;;;;;;5014867;28;20209;-66
2022/12/20 01:45:00;;;;;;;6.23;3.83;;;8.00;99.90;;;;;;5026290;28;20683;-67
2022/12/20 01:47:32;;;;;;;10.30;4.30;;;8.00;99.90;;;;;;5006492;28;20233;-66
2022/12/20 01:50:03;;;;;;;7.13;4.10;;;8.00;99.90;;;;;;5026563;28;20249;-66
2022/12/20 01:52:34;;;;;;;5.37;3.70;;;8.10;99.90;;;;;;5006564;28;20204;-67
2022/12/20 01:55:07;;;;;;;8.57;3.90;;;8.10;99.90;;;;;;5017105;28;20661;-67
2022/12/20 01:57:40;;;;;;;6.40;3.80;;;8.10;99.90;;;;;;5007673;28;20757;-66
2022/12/20 02:00:09;;;;;;;7.87;4.07;;;8.10;99.90;;;;;;5027854;28;20204;-66
2022/12/20 02:02:37;;;;;;;4.97;3.70;;;8.10;99.90;;;;;;5008173;28;20205;-67
2022/12/20 02:05:06;;;;;;;5.83;3.93;;;8.10;99.90;;;;;;5030667;28;20193;-66
2022/12/20 02:07:35;;;;;;;6.87;3.93;;;8.10;99.90;;;;;;5027539;28;20202;-67
2022/12/20 02:10:03;;;;;;;6.07;4.03;;;8.10;99.90;;;;;;4988133;28;20738;-67
2022/12/20 02:12:35;;;;;;;6.47;4.07;;;8.00;99.90;;;;;;5018552;28;20208;-67
2022/12/20 02:15:35;;;;;;;7.50;4.00;;;8.10;99.90;;;;;;5028693;28;20207;-67
2022/12/20 02:18:15;;;;;;;6.13;3.83;;;8.10;99.90;;;;;;5019357;28;20206;-67
2022/12/20 02:21:08;;;;;;;7.23;3.47;;;8.10;99.90;;;;;;5014196;28;20205;-67
2022/12/20 02:24:20;;;;;;;10.87;3.80;;;8.00;99.90;;;;;;5021741;28;20896;-67
2022/12/20 02:27:03;;;;;;;6.43;3.70;;;8.10;99.90;;;;;;4959992;28;20289;-67
2022/12/20 02:29:36;;;;;;;6.00;4.00;;;8.10;99.90;;;;;;5010013;28;20613;-67
2022/12/20 02:32:11;;;;;;;9.73;3.87;;;8.10;99.90;;;;;;5028070;28;20291;-67
2022/12/20 02:34:41;;;;;;;6.43;4.30;;;8.20;99.90;;;;;;5010113;28;21052;-67
2022/12/20 02:37:08;;;;;;;5.93;3.63;;;8.20;99.90;;;;;;5029417;28;20193;-67
2022/12/20 02:39:37;;;;;;;6.20;3.60;;;8.20;99.90;;;;;;4999909;28;20201;-67
2022/12/20 02:42:06;;;;;;;5.53;3.90;;;8.20;99.90;;;;;;5024071;28;20193;-67
2022/12/20 02:47:26;;;;;;;6.83;3.50;;;8.30;99.90;;;;;;5025090;28;20362;-67
2022/12/20 02:49:54;;;;;;;11.47;4.07;;;8.30;99.90;;;;;;5016216;28;20221;-67
2022/12/20 02:52:25;;;;;;;6.47;3.83;;;8.30;99.90;;;;;;5031435;28;20197;-67
2022/12/20 02:54:53;;;;;;;5.70;3.60;;;8.30;99.90;;;;;;4999406;28;20213;-67
2022/12/20 02:57:24;;;;;;;6.60;3.83;;;8.30;99.90;;;;;;5030311;28;20682;-67
2022/12/20 02:59:57;;;;;;;6.50;3.50;;;8.30;99.90;;;;;;5017396;28;20706;-67
2022/12/20 03:02:26;;;;;;;6.00;3.97;;;8.30;99.90;;;;;;5025599;28;20198;-67
2022/12/20 03:04:55;;;;;;;4.40;3.73;;;8.30;99.90;;;;;;5020344;28;20732;-67
2022/12/20 03:07:22;;;;;;;8.13;3.90;;;8.30;99.90;;;;;;5032152;28;20201;-67
2022/12/20 03:09:49;;;;;;;6.73;3.63;;;8.30;99.90;;;;;;5016349;28;20227;-67
2022/12/20 03:12:16;;;;;;;4.80;3.77;;;8.30;99.90;;;;;;5024481;28;20492;-66
2022/12/20 03:14:43;;;;;;;6.43;4.27;;;8.30;99.90;;;;;;5030176;28;20925;-67
2022/12/20 03:17:10;;;;;;;5.87;4.00;;;8.30;99.90;;;;;;5011206;28;20209;-67
2022/12/20 03:19:38;;;;;;;6.07;3.80;;;8.30;99.90;;;;;;5023277;28;20198;-67
2022/12/20 03:22:05;;;;;;;10.50;4.27;;;8.30;99.90;;;;;;5023478;28;20205;-67
2022/12/20 03:24:32;;;;;;;9.13;3.77;;;8.30;99.90;;;;;;5036663;28;20193;-67
2022/12/20 03:26:59;;;;;;;5.53;3.83;;;8.30;99.90;;;;;;5005582;28;20209;-67
2022/12/20 03:29:26;;;;;;;5.23;3.57;;;8.40;99.90;;;;;;5026644;28;20232;-67
2022/12/20 03:31:52;;;;;;;4.17;3.17;;;8.40;99.90;;;;;;5013778;28;20660;-67
2022/12/20 03:34:19;;;;;;;5.10;3.50;;;8.40;99.90;;;;;;5030183;28;20222;-67
2022/12/20 03:36:48;;;;;;;6.23;3.77;;;8.40;99.90;;;;;;5019083;28;20675;-67
2022/12/20 03:39:15;;;;;;;7.27;3.80;;;8.40;99.90;;;;;;5028063;28;20205;-67
2022/12/20 03:41:42;;;;;;;6.40;3.50;;;8.40;99.90;;;;;;4998260;28;20691;-67
2022/12/20 03:44:09;;;;;;;3.87;3.47;;;8.40;99.90;;;;;;5025430;28;20213;-67
2022/12/20 03:46:36;;;;;;;5.33;3.23;;;8.50;99.90;;;;;;5017318;28;20209;-67
2022/12/20 03:49:02;;;;;;;3.03;2.73;;;8.50;99.90;;;;;;5025870;28;20202;-67
2022/12/20 03:51:29;;;;;;;5.33;3.37;;;8.50;99.90;;;;;;5024327;28;20197;-67
2022/12/20 03:53:57;;;;;;;4.53;3.33;;;8.50;99.90;;;;;;5013508;28;20208;-67
2022/12/20 03:56:24;;;;;;;10.50;3.80;;;8.50;99.90;;;;;;5022555;28;20206;-66
2022/12/20 03:58:51;;;;;;;5.37;3.50;;;8.40;99.90;;;;;;5004034;28;20208;-67
2022/12/20 04:01:22;;;;;;;6.03;4.03;;;8.50;99.90;;;;;;5000524;28;20300;-67
2022/12/20 04:03:49;;;;;;;8.07;3.73;;;8.50;99.90;;;;;;5015041;28;20240;-67
2022/12/20 04:06:17;;;;;;;4.23;3.17;;;8.50;99.90;;;;;;5022400;28;20193;-67
2022/12/20 04:08:43;;;;;;;4.17;3.30;;;8.50;99.90;;;;;;5003437;28;20201;-67
2022/12/20 04:11:15;;;;;;;7.47;3.55;;;8.50;99.90;;;;;;5027422;28;20229;-67
2022/12/20 04:13:42;;;;;;;6.27;3.83;;;8.50;99.90;;;;;;5000375;28;20201;-67
2022/12/20 04:16:09;;;;;;;6.20;3.60;;;8.50;99.90;;;;;;5021939;28;20202;-67
2022/12/20 04:18:36;;;;;;;5.57;3.17;;;8.50;99.90;;;;;;5020549;28;20216;-67
2022/12/20 04:21:05;;;;;;;3.73;2.83;;;8.60;99.90;;;;;;5020997;28;20202;-67
2022/12/20 04:23:32;;;;;;;4.50;3.23;;;8.60;99.90;;;;;;5018213;28;20207;-67
2022/12/20 04:25:59;;;;;;;7.53;3.67;;;8.60;99.90;;;;;;5022206;28;20219;-67
2022/12/20 04:28:28;;;;;;;4.30;3.50;;;8.60;99.90;;;;;;5028898;28;20198;-69
2022/12/20 04:30:55;;;;;;;5.77;3.30;;;8.60;99.90;;;;;;4992032;28;20241;-67
2022/12/20 04:33:22;;;;;;;6.40;3.37;;;8.60;99.90;;;;;;5015301;28;20221;-66
2022/12/20 04:35:49;;;;;;;6.20;3.13;;;8.60;99.90;;;;;;5004872;28;20217;-67
2022/12/20 04:38:16;;;;;;;6.03;3.10;;;8.60;99.90;;;;;;5017039;28;20941;-67
2022/12/20 04:40:42;;;;;;;5.27;3.17;;;8.60;99.90;;;;;;5007933;28;20205;-67
2022/12/20 04:43:09;;;;;;;9.07;3.40;;;8.60;99.90;;;;;;5020995;28;20208;-67
2022/12/20 04:45:37;;;;;;;5.07;3.50;;;8.60;99.90;;;;;;4988980;28;20271;-67
2022/12/20 04:48:04;;;;;;;5.03;3.47;;;8.60;99.90;;;;;;5019882;28;20197;-66
2022/12/20 04:50:31;;;;;;;7.67;4.50;;;8.70;99.90;;;;;;5026746;28;20919;-67
2022/12/20 04:55:42;;;;;;;10.10;4.90;;;8.60;99.90;;;;;;5002294;28;20275;-67
2022/12/20 04:58:09;;;;;;;13.10;5.57;;;8.60;99.90;;;;;;5014839;28;20942;-67
2022/12/20 05:00:37;;;;;;;13.77;5.83;;;8.60;99.90;;;;;;4990794;28;20216;-67
2022/12/20 05:03:04;;;;;;;10.87;5.60;;;8.60;99.90;;;;;;5010453;28;20914;-67
2022/12/20 05:05:31;;;;;;;15.60;6.17;;;8.60;99.90;;;;;;5021351;28;20198;-67
2022/12/20 05:07:58;;;;;;;11.47;5.07;;;8.60;99.90;;;;;;5023109;28;20656;-67
2022/12/20 05:10:25;;;;;;;11.25;5.82;;;8.60;99.90;;;;;;5010802;28;20237;-66
2022/12/20 05:12:52;;;;;;;13.43;5.07;;;8.50;99.90;;;;;;5009826;28;20220;-67
2022/12/20 05:15:19;;;;;;;8.23;4.77;;;8.50;99.90;;;;;;4989192;28;20667;-67
2022/12/20 05:17:47;;;;;;;9.90;4.63;;;8.50;99.90;;;;;;5021650;28;20208;-66
2022/12/20 05:20:14;;;;;;;7.47;4.50;;;8.60;99.90;;;;;;5019770;28;20216;-67
2022/12/20 05:28:09;;;;;;;8.07;4.87;;;8.50;99.90;;;;;;5013645;28;20224;-67
2022/12/20 05:30:36;;;;;;;9.23;5.17;;;8.50;99.90;;;;;;4972575;28;20242;-67
2022/12/20 05:33:04;;;;;;;7.23;4.47;;;8.50;99.90;;;;;;5007825;28;20236;-67
2022/12/20 05:35:31;;;;;;;10.90;4.90;;;8.50;99.90;;;;;;5003958;28;20202;-67
2022/12/20 05:37:58;;;;;;;13.83;5.90;;;8.50;99.90;;;;;;5011339;28;20197;-67
2022/12/20 05:40:25;;;;;;;12.47;5.60;;;8.50;99.90;;;;;;5008668;28;20221;-68
2022/12/20 05:42:51;;;;;;;7.23;4.90;;;8.50;99.90;;;;;;5007080;28;20212;-68
2022/12/20 05:45:18;;;;;;;10.90;5.10;;;8.50;99.90;;;;;;5014174;28;20216;-67
2022/12/20 05:47:45;;;;;;;8.83;4.87;;;8.60;99.90;;;;;;4989823;28;20604;-67
2022/12/20 05:50:16;;;;;;;6.40;4.00;;;8.70;99.90;;;;;;5008100;28;20232;-68
2022/12/20 05:52:42;;;;;;;6.50;4.27;;;8.70;99.90;;;;;;5011914;28;20577;-68
2022/12/20 05:55:10;;;;;;;13.70;6.45;;;8.80;99.90;;;;;;5022871;28;20201;-68
2022/12/20 05:57:37;;;;;;;10.07;5.70;;;8.80;99.90;;;;;;4999059;28;20217;-67
2022/12/20 06:00:04;;;;;;;14.67;6.27;;;8.80;99.90;;;;;;5018690;28;20205;-68
2022/12/20 06:02:31;;;;;;;15.53;6.40;;;8.90;99.90;;;;;;4993293;28;20205;-68
2022/12/20 06:04:58;;;;;;;6.03;4.30;;;8.90;99.90;;;;;;5015863;28;20216;-68
2022/12/20 06:07:27;;;;;;;7.83;4.70;;;8.90;99.90;;;;;;5001953;28;20232;-67
2022/12/20 06:09:54;;;;;;;6.53;4.30;;;9.00;99.90;;;;;;5010889;28;21319;-67
2022/12/20 06:12:21;;;;;;;9.67;4.30;;;9.00;99.90;;;;;;5001702;28;20472;-68
2022/12/20 06:14:48;;;;;;;4.63;3.95;;;9.00;99.90;;;;;;5009037;28;20233;-68
2022/12/20 06:17:15;;;;;;;5.13;3.80;;;9.00;99.90;;;;;;4996890;28;20218;-68
2022/12/20 06:19:42;;;;;;;5.90;4.03;;;9.00;99.90;;;;;;5024549;28;20217;-68
2022/12/20 06:22:09;;;;;;;6.53;4.50;;;9.10;99.90;;;;;;5007568;28;20221;-68
2022/12/20 06:24:38;;;;;;;5.27;4.60;;;9.10;99.90;;;;;;5025996;28;20217;-68
2022/12/20 06:27:05;;;;;;;8.07;4.70;;;9.10;99.90;;;;;;5008755;28;20351;-68
2022/12/20 06:29:32;;;;;;;5.80;4.40;;;9.10;99.90;;;;;;5019428;28;20294;-67
2022/12/20 06:32:00;;;;;;;8.33;4.63;;;9.20;99.90;;;;;;5004148;28;20722;-68
2022/12/20 06:34:27;;;;;;;5.13;4.40;;;9.10;99.90;;;;;;5024819;28;20201;-67
2022/12/20 06:36:54;;;;;;;6.95;4.47;;;9.10;99.90;;;;;;5010729;28;21063;-67
2022/12/20 06:39:21;;;;;;;5.85;3.90;;;9.10;99.90;;;;;;5031070;28;20206;-67
2022/12/20 06:41:49;;;;;;;8.18;4.50;;;9.20;99.90;;;;;;5025106;28;20206;-68
2022/12/20 06:44:16;;;;;;;10.05;4.00;;;9.20;99.90;;;;;;5018977;28;20666;-67
2022/12/20 06:46:42;;;;;;;5.28;3.67;;;9.30;99.90;;;;;;5024733;28;20202;-68
2022/12/20 06:49:10;;;;;;;9.80;4.40;;;9.30;99.90;;;;;;5001885;28;20762;-68
2022/12/20 06:51:37;;;;;;;4.93;4.00;;;9.30;99.90;;;;;;5029993;28;20236;-68
2022/12/20 06:54:04;;;;;;;5.30;4.13;;;9.30;99.90;;;;;;5025052;28;20202;-68
2022/12/20 06:56:30;;;;;;;7.50;4.03;;;9.20;99.90;;;;;;5031011;28;20198;-68
2022/12/20 06:58:58;;;;;;;6.43;3.87;;;9.20;99.90;;;;;;5015440;28;20202;-70
2022/12/20 07:01:25;;;;;;;8.57;3.87;;;9.20;99.90;;;;;;5028648;28;20209;-67
2022/12/20 07:03:52;;;;;;;5.70;3.47;;;9.20;99.90;;;;;;5003324;28;20202;-68
2022/12/20 07:06:19;;;;;;;7.22;3.47;;;9.20;99.90;;;;;;5019019;28;20217;-68
2022/12/20 07:08:46;;;;;;;5.35;3.83;;;9.20;99.90;;;;;;4998669;28;20193;-68
2022/12/20 07:11:12;;;;;;;6.77;3.50;;;9.30;99.90;;;;;;5029899;28;20242;-67
2022/12/20 07:13:39;;;;;;;5.23;3.50;;;9.20;99.90;;;;;;4996230;28;20205;-67
2022/12/20 07:16:08;;;;;;;6.30;3.77;;;9.30;99.90;;;;;;5011662;28;20228;-67
2022/12/20 07:18:35;;;;;;;7.37;3.50;;;9.20;99.90;;;;;;4976028;28;20969;-68
2022/12/20 07:21:03;;;;;;;4.28;3.13;;;9.30;99.90;;;;;;5027774;28;20221;-67
2022/12/20 07:23:30;;;;;;;6.57;3.53;;;9.30;99.90;;;;;;5009812;28;20892;-68
2022/12/20 07:25:58;;;;;;;6.47;4.23;;;9.30;99.90;;;;;;5021068;28;20202;-68
2022/12/20 07:28:26;;;;;;;5.38;3.10;;;9.30;99.90;;;;;;4991889;28;20205;-67
2022/12/20 07:30:52;;;;;;;4.90;3.97;;;9.20;99.90;;;;;;4997819;28;20950;-67
2022/12/20 07:33:21;;;;;;;6.75;3.65;;;9.30;99.90;;;;;;4999995;28;20216;-67
2022/12/20 07:35:47;;;;;;;5.53;3.47;;;9.30;99.90;;;;;;4992227;28;20203;-68
2022/12/20 07:38:14;;;;;;;4.57;3.33;;;9.30;99.90;;;;;;5019687;28;20197;-68
2022/12/20 07:40:42;;;;;;;3.95;3.55;;;9.30;99.90;;;;;;5008680;28;20202;-68
2022/12/20 07:43:09;;;;;;;5.90;3.80;;;9.30;99.90;;;;;;5005780;28;20226;-68
2022/12/20 07:45:36;;;;;;;6.38;3.80;;;9.30;99.90;;;;;;4984696;28;20211;-68
2022/12/20 07:48:03;;;;;;;4.63;3.55;;;9.30;99.90;;;;;;5003250;28;20228;-68
2022/12/20 07:50:34;;;;;;;4.25;3.30;;;9.20;99.90;;;;;;4981344;28;21105;-68
2022/12/20 07:53:04;;;;;;;5.57;2.50;;;9.20;99.90;;;;;;5018421;28;20728;-68
2022/12/20 07:55:32;;;;;;;8.75;3.28;;;9.20;99.90;;;;;;5010879;28;20209;-68
2022/12/20 07:58:04;;;;;;;6.50;3.73;;;9.30;99.90;;;;;;4992941;28;23578;-68
2022/12/20 08:00:32;;;;;;;4.47;3.23;;;9.30;99.90;;;;;;5002054;28;20202;-68
2022/12/20 08:03:04;;;;;;;6.00;3.63;;;9.30;99.90;;;;;;5004030;28;20213;-68
2022/12/20 08:05:33;;;;;;;4.60;3.40;;;9.30;99.90;;;;;;4976348;28;22002;-69
2022/12/20 08:08:02;;;;;;;3.67;3.22;;;9.30;99.90;;;;;;5020759;28;20237;-68
2022/12/20 08:10:30;;;;;;;3.38;2.90;;;9.30;99.90;;;;;;5023545;28;20237;-69
2022/12/20 08:12:59;;;;;;;5.35;3.47;;;9.30;99.90;;;;;;5016077;28;20194;-68
2022/12/20 08:15:27;;;;;;;4.43;3.83;;;9.40;99.90;;;;;;5010754;28;20579;-69
2022/12/20 08:17:54;;;;;;;5.97;3.28;;;9.30;99.90;;;;;;5000368;28;20205;-68
2022/12/20 08:20:21;;;;;;;4.38;3.00;;;9.40;99.90;;;;;;4999905;28;20721;-69
2022/12/20 08:22:51;;;;;;;4.70;3.33;;;9.40;99.90;;;;;;4993428;28;20232;-68
2022/12/20 08:25:20;;;;;;;4.13;2.97;;;9.50;99.90;;;;;;5020554;28;20226;-69
2022/12/20 08:27:48;;;;;;;4.30;3.60;;;9.40;99.90;;;;;;5008163;28;20316;-69
2022/12/20 08:30:15;;;;;;;4.13;3.20;;;9.40;99.90;;;;;;5013847;28;20290;-70
2022/12/20 08:32:42;;;;;;;4.97;3.85;;;9.50;99.90;;;;;;5012526;28;20236;-70
2022/12/20 08:35:09;;;;;;;5.65;3.58;;;9.40;99.90;;;;;;5005225;28;20201;-70
2022/12/20 08:37:36;;;;;;;5.85;3.80;;;9.50;99.90;;;;;;4985829;28;20580;-68
2022/12/20 08:40:06;;;;;;;8.85;5.43;;;9.50;99.90;;;;;;5019087;28;20837;-69
2022/12/20 08:42:33;;;;;;;6.28;4.25;;;9.50;99.90;;;;;;5013289;28;20209;-69
2022/12/20 08:45:00;;;;;;;6.23;4.53;;;9.50;99.90;;;;;;5009531;28;20979;-69
2022/12/20 08:47:28;;;;;;;4.95;4.45;;;9.50;99.90;;;;;;5023650;28;20201;-69
2022/12/20 08:49:55;;;;;;;5.45;4.45;;;9.50;99.90;;;;;;4998961;28;20240;-69
2022/12/20 08:52:22;;;;;;;4.03;3.63;;;9.50;99.90;;;;;;5004608;28;20225;-68
2022/12/20 08:54:49;;;;;;;7.40;4.43;;;9.50;99.90;;;;;;4983549;28;20221;-68
2022/12/20 08:57:17;;;;;;;7.57;4.57;;;9.50;99.90;;;;;;5004933;28;20198;-68
2022/12/20 08:59:43;;;;;;;5.65;4.38;;;9.50;99.90;;;;;;5014544;28;20235;-69
2022/12/20 09:02:10;;;;;;;9.52;3.97;;;9.50;99.90;;;;;;5011454;28;20202;-69
2022/12/20 09:04:37;;;;;;;5.03;3.88;;;9.50;99.90;;;;;;5008077;28;20229;-69
2022/12/20 09:07:04;;;;;;;4.95;3.95;;;9.60;99.90;;;;;;4999213;28;20199;-69
2022/12/20 09:09:31;;;;;;;4.82;3.58;;;9.60;99.90;;;;;;4992874;28;21125;-70
2022/12/20 09:11:58;;;;;;;5.47;3.75;;;9.60;99.90;;;;;;5009281;28;21047;-70
2022/12/20 09:14:26;;;;;;;6.13;3.65;;;9.60;99.90;;;;;;5011974;28;20217;-69
2022/12/20 09:16:53;;;;;;;15.45;6.63;;;9.60;99.90;;;;;;4992858;28;20221;-69
2022/12/20 09:19:20;;;;;;;13.00;6.32;;;9.60;99.90;;;;;;5023451;28;20206;-69
2022/12/20 09:21:47;;;;;;;7.40;4.82;;;9.70;99.90;;;;;;4989921;28;20225;-69
2022/12/20 09:24:13;;;;;;;10.35;5.80;;;9.70;99.90;;;;;;4983428;28;21040;-69
2022/12/20 09:26:40;;;;;;;11.70;6.53;;;9.70;99.90;;;;;;5021912;28;21735;-68
2022/12/20 09:29:07;;;;;;;7.03;4.80;;;9.80;99.90;;;;;;5010031;28;20796;-69
2022/12/20 09:31:35;;;;;;;7.82;4.78;;;9.80;99.90;;;;;;5017027;28;20683;-69
2022/12/20 09:34:02;;;;;;;5.45;4.05;;;9.80;99.90;;;;;;5002515;28;20937;-69
2022/12/20 09:36:30;;;;;;;6.68;3.92;;;9.80;99.90;;;;;;5010802;28;20198;-69
2022/12/20 09:38:57;;;;;;;5.07;4.03;;;9.80;99.90;;;;;;4988897;28;20714;-69
2022/12/20 09:41:31;;;;;;;7.10;4.07;;;9.90;99.90;;;;;;4994871;28;20292;-69
2022/12/20 09:43:59;;;;;;;7.20;4.15;;;9.90;99.90;;;;;;5012714;28;21024;-69
2022/12/20 09:46:27;;;;;;;5.00;4.13;;;9.90;99.90;;;;;;5006382;28;20237;-69
2022/12/20 09:48:56;;;;;;;11.23;5.13;;;10.00;99.90;;;;;;5006873;28;20202;-69
2022/12/20 09:51:38;;;;;;;6.93;4.97;;;10.00;99.90;;;;;;5006446;28;20214;-67
2022/12/20 09:54:19;;;;;;;6.00;4.05;;;10.00;99.90;;;;;;4984055;28;20300;-68
2022/12/20 09:56:56;;;;;;;12.63;4.25;;;10.00;99.90;;;;;;4978699;28;20236;-67
2022/12/20 09:59:24;;;;;;;5.53;4.00;;;10.10;99.90;;;;;;5001640;28;21035;-67
2022/12/20 10:01:51;;;;;;;11.95;5.28;;;10.10;99.90;;;;;;5015191;28;21085;-68
2022/12/20 10:04:23;;;;;;;6.38;4.47;;;10.20;99.90;;;;;;5008894;28;20258;-67
2022/12/20 10:07:04;;;;;;;7.30;4.63;;;10.20;99.90;;;;;;5009630;28;20221;-67
2022/12/20 10:09:57;;;;;;;7.22;3.90;;;10.20;99.90;;;;;;4987342;28;20264;-68
2022/12/20 10:12:33;;;;;;;7.53;3.90;;;10.20;99.90;;;;;;4990962;28;20260;-67
2022/12/20 10:15:18;;;;;;;7.15;3.95;;;10.20;99.90;;;;;;5008471;28;21112;-67
2022/12/20 10:17:58;;;;;;;4.57;3.28;;;10.10;99.90;;;;;;5024412;28;20575;-68
2022/12/20 10:20:46;;;;;;;6.05;3.70;;;10.10;99.90;;;;;;5011427;28;20797;-67
2022/12/20 10:23:22;;;;;;;5.50;3.95;;;10.10;99.90;;;;;;4999609;28;20785;-68
2022/12/20 10:25:51;;;;;;;4.45;3.30;;;10.10;99.90;;;;;;5012328;28;20291;-68
2022/12/20 10:28:24;;;;;;;6.05;3.50;;;10.00;99.90;;;;;;4991316;28;20226;-67
2022/12/20 10:30:50;;;;;;;4.07;3.25;;;10.00;99.90;;;;;;5012576;28;20921;-68
2022/12/20 10:33:21;;;;;;;6.57;3.10;;;9.90;99.90;;;;;;5014257;28;20706;-67
2022/12/20 10:35:51;;;;;;;6.10;3.67;;;10.00;99.90;;;;;;5012711;28;20260;-68
2022/12/20 10:38:19;;;;;;;5.05;3.40;;;10.00;99.90;;;;;;5006311;28;20236;-67
2022/12/20 10:40:48;;;;;;;6.47;3.13;;;10.00;99.90;;;;;;5011058;28;20573;-67
2022/12/20 10:43:18;;;;;;;4.90;3.13;;;10.00;99.90;;;;;;4979111;28;20226;-67
2022/12/20 10:45:55;;;;;;;6.00;2.97;;;10.00;99.90;;;;;;5007175;28;20205;-67
2022/12/20 10:48:32;;;;;;;5.80;3.80;;;10.00;99.90;;;;;;5014250;28;20363;-68
2022/12/20 10:51:02;;;;;;;3.58;3.25;;;10.10;99.90;;;;;;5015405;28;20208;-68
2022/12/20 10:53:30;;;;;;;6.10;3.55;;;10.10;99.90;;;;;;5006535;28;20242;-68
2022/12/20 10:56:13;;;;;;;5.88;3.78;;;10.20;99.90;;;;;;5013091;28;20202;-68
2022/12/20 10:58:41;;;;;;;7.93;3.58;;;10.20;99.90;;;;;;4987944;28;20213;-67
2022/12/20 11:01:14;;;;;;;7.70;3.13;;;10.20;99.90;;;;;;5017743;28;20197;-67
2022/12/20 11:03:52;;;;;;;4.00;3.00;;;10.20;99.90;;;;;;5017319;28;20213;-67
2022/12/20 11:06:23;;;;;;;4.60;3.00;;;10.20;99.90;;;;;;5019307;28;20209;-67
2022/12/20 11:08:50;;;;;;;3.60;3.05;;;10.20;99.90;;;;;;5026467;28;20205;-67
2022/12/20 11:11:20;;;;;;;4.18;3.13;;;10.20;99.90;;;;;;5002908;28;20230;-67
2022/12/20 11:13:49;;;;;;;4.60;3.40;;;10.20;99.90;;;;;;5015710;28;20623;-67
2022/12/20 11:16:34;;;;;;;4.10;2.83;;;10.20;99.90;;;;;;4982345;28;20210;-68
2022/12/20 11:19:27;;;;;;;5.72;3.00;;;10.10;99.90;;;;;;5029826;28;20239;-67
2022/12/20 11:22:01;;;;;;;4.88;2.92;;;10.10;99.90;;;;;;5021734;28;20213;-67
2022/12/20 11:24:35;;;;;;;12.00;3.60;;;10.10;99.90;;;;;;5010664;28;20201;-67
2022/12/20 11:27:17;;;;;;;4.88;2.92;;;10.10;99.90;;;;;;5001820;28;20228;-67
2022/12/20 11:30:02;;;;;;;6.32;3.58;;;10.10;99.90;;;;;;4983928;28;20214;-67
2022/12/20 11:32:40;;;;;;;5.05;3.20;;;10.10;99.90;;;;;;5012723;28;20799;-68
2022/12/20 11:35:14;;;;;;;3.38;2.67;;;10.10;99.90;;;;;;5002875;28;20197;-67
2022/12/20 11:37:49;;;;;;;7.18;2.83;;;10.10;99.90;;;;;;5002945;28;20226;-67
2022/12/20 11:40:29;;;;;;;3.72;2.80;;;10.10;99.90;;;;;;4998168;28;20217;-67
2022/12/20 11:43:09;;;;;;;2.85;2.53;;;10.10;99.90;;;;;;5017910;28;20988;-68
2022/12/20 11:45:44;;;;;;;7.22;2.65;;;10.10;99.90;;;;;;4981415;28;20213;-68
2022/12/20 11:48:25;;;;;;;4.45;2.67;;;10.00;99.90;;;;;;5009851;28;20216;-67
2022/12/20 11:51:10;;;;;;;3.35;2.85;;;10.10;99.90;;;;;;5018618;28;20217;-67
2022/12/20 11:53:43;;;;;;;5.57;2.88;;;10.10;99.90;;;;;;5010883;28;20229;-67
2022/12/20 11:56:15;;;;;;;3.65;2.63;;;10.10;99.90;;;;;;5010838;28;21136;-68
2022/12/20 11:58:51;;;;;;;4.20;2.85;;;10.10;99.90;;;;;;4989252;28;20966;-68
2022/12/20 12:01:23;;;;;;;4.22;2.88;;;10.00;99.90;;;;;;4988971;28;20429;-67
2022/12/20 12:03:59;;;;;;;3.33;2.50;;;10.10;99.90;;;;;;4996772;28;20229;-67
2022/12/20 12:06:29;;;;;;;4.30;2.60;;;10.10;99.90;;;;;;5014240;28;20213;-67
2022/12/20 12:09:12;;;;;;;4.05;2.83;;;10.10;99.90;;;;;;4991490;28;20706;-68
2022/12/20 12:11:44;;;;;;;4.68;2.38;;;10.10;99.90;;;;;;5010509;28;20248;-68
2022/12/20 12:14:21;;;;;;;2.70;2.38;;;10.10;99.90;;;;;;4993908;28;21275;-68
2022/12/20 12:16:52;;;;;;;5.35;2.78;;;10.10;99.90;;;;;;4972427;28;20225;-68
2022/12/20 12:19:19;;;;;;;3.38;2.78;;;10.20;99.90;;;;;;4990670;28;20205;-68
2022/12/20 12:21:50;;;;;;;6.32;2.80;;;10.10;99.90;;;;;;4999788;28;20202;-68
2022/12/20 12:24:25;;;;;;;4.43;3.33;;;10.10;99.90;;;;;;5012666;28;20324;-69
2022/12/20 12:26:52;;;;;;;4.30;2.95;;;10.10;99.90;;;;;;5014384;28;20217;-68
2022/12/20 12:29:20;;;;;;;6.80;4.00;;;10.10;99.90;;;;;;4995938;28;20231;-68
2022/12/20 12:31:51;;;;;;;9.45;3.70;;;10.20;99.90;;;;;;4978927;28;20220;-68
2022/12/20 12:34:30;;;;;;;4.47;3.28;;;10.10;99.90;;;;;;5012486;28;20210;-68
2022/12/20 12:37:32;;;;;;;4.65;3.03;;;10.10;99.90;;;;;;5007390;28;20256;-68
2022/12/20 12:40:29;;;;;;;3.72;2.80;;;10.10;99.90;;;;;;4985705;28;20216;-68
2022/12/20 12:43:47;;;;;;;4.00;2.65;;;10.20;99.90;;;;;;4998409;28;20206;-68
2022/12/20 12:46:18;;;;;;;3.33;2.72;;;10.20;99.90;;;;;;4983023;28;20199;-68
2022/12/20 12:48:51;;;;;;;3.78;2.72;;;10.20;99.90;;;;;;4948126;28;20955;-68
2022/12/20 12:51:26;;;;;;;3.08;2.78;;;10.20;99.90;;;;;;4985526;28;20206;-68
2022/12/20 12:54:01;;;;;;;5.43;3.30;;;10.20;99.90;;;;;;4987395;28;20240;-69
2022/12/20 12:56:40;;;;;;;78.00;10.93;;;10.30;99.90;;;;;;4977034;28;20287;-68
2022/12/20 12:59:42;;;;;;;12.38;3.55;;;10.30;99.90;;;;;;4980987;28;20209;-69
2022/12/20 13:02:35;;;;;;;5.13;2.80;;;10.30;99.90;;;;;;4966213;28;20220;-68
2022/12/20 13:05:34;;;;;;;4.25;2.50;;;10.20;99.90;;;;;;4957780;28;20346;-68
2022/12/20 13:08:01;;;;;;;8.35;2.53;;;10.20;99.90;;;;;;4983765;28;21074;-68
2022/12/20 13:11:01;;;;;;;6.53;2.70;;;10.20;99.90;;;;;;4987774;28;21202;-68
2022/12/20 13:13:29;;;;;;;5.05;2.83;;;10.20;99.90;;;;;;4972451;28;20648;-68
2022/12/20 13:16:11;;;;;;;7.00;3.13;;;10.20;99.90;;;;;;4980373;28;21193;-69
2022/12/20 13:18:38;;;;;;;5.78;3.10;;;10.20;99.90;;;;;;4993635;28;20894;-68
2022/12/20 13:21:37;;;;;;;3.63;2.50;;;10.20;99.90;;;;;;4998381;28;20206;-68